Weather reports worldwide

Advertisment
Dona Mencia, Spain (8412): temperature & dewpoint: 17.05.2019 14:00:00 - 23.05.2019 14:00:00 (CEST)Dona Mencia, Spain (8412): wind speed & gusts: 17.05.2019 14:00:00 - 23.05.2019 14:00:00 (CEST)Dona Mencia, Spain (8412): wind direction: 17.05.2019 14:00:00 - 23.05.2019 14:00:00 (CEST)Dona Mencia, Spain (8412): precipitation: 17.05.2019 14:00:00 - 23.05.2019 14:00:00 (CEST)
Date & Time tt [°C] td [°C] ff [km/h] ff [kn] fx [km/h] fx [kn] dd rr [mm]
23.05.2019 14:00:00 - - - - - - - -
23.05.2019 13:00:00 25,8 10,0 6 4 15 8 W 0,0
23.05.2019 12:00:00 24,1 8,9 7 4 15 8 NW 0,0
23.05.2019 11:00:00 23,2 8,5 4 2 10 5 W 0,0
23.05.2019 10:00:00 22,5 7,8 3 1 6 3 NW 0,0
23.05.2019 09:00:00 20,9 6,8 0 0 6 3 NNW 0,0
23.05.2019 08:00:00 18,7 5,9 0 0 5 3 NNE -
23.05.2019 07:00:00 17,4 5,6 2 1 7 4 NNE 0,0
23.05.2019 06:00:00 18,3 6,1 3 2 13 7 NW 0,0
23.05.2019 05:00:00 19,7 7,1 5 3 21 11 NW 0,0
23.05.2019 04:00:00 20,1 7,1 8 4 27 15 W 0,0
23.05.2019 03:00:00 20,3 7,3 14 8 29 16 W 0,0
23.05.2019 02:00:00 20,7 6,2 15 8 27 15 W -
23.05.2019 01:00:00 19,4 5,8 14 8 32 17 WNW 0,0
23.05.2019 00:00:00 20,7 6,2 8 5 14 8 NNW 0,0
22.05.2019 23:00:00 21,5 6,5 6 4 16 8 NW 0,0
22.05.2019 22:00:00 22,7 7,3 9 5 23 12 WSW 0,0
22.05.2019 21:00:00 24,4 8,4 14 8 26 14 W 0,0
22.05.2019 20:00:00 25,5 8,5 16 9 29 15 W -
22.05.2019 19:00:00 27,1 8,9 11 6 24 13 W 0,0
22.05.2019 18:00:00 26,6 9,4 7 4 17 9 NW 0,0
22.05.2019 17:00:00 26,0 8,9 5 3 18 10 W 0,0
22.05.2019 16:00:00 25,9 9,7 7 4 22 12 SW 0,0
22.05.2019 15:00:00 26,2 9,9 6 4 18 10 WSW 0,0
22.05.2019 14:00:00 24,4 9,6 11 6 29 16 NW -
22.05.2019 13:00:00 25,1 10,2 1 1 16 8 N 0,0
22.05.2019 12:00:00 23,7 10,8 2 1 18 10 NW 0,0
22.05.2019 11:00:00 20,8 10,3 5 3 10 5 WNW 0,0
22.05.2019 10:00:00 18,7 9,4 3 2 7 4 WNW 0,0
22.05.2019 09:00:00 16,7 8,4 1 0 8 4 WSW 0,0
22.05.2019 08:00:00 15,2 7,4 6 3 10 6 NNE -
22.05.2019 07:00:00 15,5 6,7 4 2 9 5 N 0,0
22.05.2019 06:00:00 17,4 7,4 2 1 7 4 NNW 0,0
22.05.2019 05:00:00 17,6 7,3 1 1 4 2 NW 0,0
22.05.2019 04:00:00 17,6 7,3 2 1 8 5 NNE 0,0
22.05.2019 03:00:00 16,2 6,5 6 3 17 9 NNW 0,0
22.05.2019 02:00:00 17,0 7,3 8 5 22 12 WNW -
22.05.2019 01:00:00 17,9 7,6 11 6 26 14 NW 0,0
22.05.2019 00:00:00 18,0 7,4 10 5 29 16 NW 0,0
21.05.2019 23:00:00 19,7 7,1 16 8 35 19 W 0,0
21.05.2019 22:00:00 20,6 4,6 7 4 13 7 W 0,0
21.05.2019 21:00:00 22,8 5,3 10 5 22 12 WNW 0,0
21.05.2019 20:00:00 24,2 5,5 15 8 26 14 WNW -
21.05.2019 19:00:00 25,1 6,8 9 5 26 14 WNW 0,0
21.05.2019 18:00:00 25,0 7,1 15 8 29 16 W 0,0
21.05.2019 17:00:00 25,0 7,6 10 5 28 15 W 0,0
21.05.2019 16:00:00 24,3 7,4 9 5 28 15 W 0,0
21.05.2019 15:00:00 23,9 7,6 11 6 25 13 WSW 0,0
21.05.2019 14:00:00 23,5 7,1 11 6 23 13 W -
21.05.2019 13:00:00 22,5 8,3 8 4 23 12 W 0,0
21.05.2019 12:00:00 20,8 7,4 5 3 16 9 WSW 0,0
21.05.2019 11:00:00 19,4 9,3 4 2 13 7 WNW 0,0
21.05.2019 10:00:00 17,4 9,6 3 2 8 4 WNW 0,0
21.05.2019 09:00:00 14,8 8,8 4 2 10 6 NNW 0,0
21.05.2019 08:00:00 13,8 8,0 7 4 14 8 NNW -
21.05.2019 07:00:00 13,9 7,4 10 5 24 13 NW 0,0
21.05.2019 06:00:00 14,1 6,4 9 5 18 10 NNW 0,0
21.05.2019 05:00:00 14,7 5,9 8 4 17 9 NW 0,0
21.05.2019 04:00:00 15,3 5,5 11 6 20 11 NW 0,0
21.05.2019 03:00:00 15,5 4,8 8 4 22 12 WNW 0,0
21.05.2019 02:00:00 15,9 3,6 9 5 36 19 W -
21.05.2019 01:00:00 16,8 2,7 19 10 38 21 W 0,0
21.05.2019 00:00:00 17,4 2,5 21 12 37 20 W 0,0
20.05.2019 23:00:00 18,5 2,3 19 10 31 17 W 0,0
20.05.2019 22:00:00 19,5 1,1 12 7 22 12 W 0,0
20.05.2019 21:00:00 21,6 1,3 11 6 26 14 WNW 0,0
20.05.2019 20:00:00 23,5 1,7 11 6 35 19 W -
20.05.2019 19:00:00 23,6 3,0 17 9 35 19 W 0,0
20.05.2019 18:00:00 23,5 3,9 14 8 31 17 W 0,0
20.05.2019 17:00:00 22,7 4,6 16 9 36 19 WNW 0,0
20.05.2019 16:00:00 23,0 5,0 16 9 36 19 W 0,0
20.05.2019 15:00:00 22,0 5,8 15 8 34 18 W 0,0
20.05.2019 14:00:00 21,2 6,7 12 7 29 15 WNW -
20.05.2019 13:00:00 20,6 7,3 14 7 24 13 WNW 0,0
20.05.2019 12:00:00 19,4 8,4 10 6 24 13 WNW 0,0
20.05.2019 11:00:00 17,6 11,7 3 2 10 5 WSW 0,0
20.05.2019 10:00:00 15,8 12,5 3 2 12 6 WNW 0,0
20.05.2019 09:00:00 14,0 13,7 4 2 11 6 WNW 0,0
20.05.2019 08:00:00 12,7 12,5 5 3 10 5 NNW -
20.05.2019 07:00:00 12,8 12,6 4 2 11 6 NNW 0,0
20.05.2019 06:00:00 12,9 12,4 4 2 18 10 NW 0,0
20.05.2019 05:00:00 13,3 12,6 9 5 16 9 NNW 0,0
20.05.2019 04:00:00 13,7 12,7 9 5 20 11 WNW 0,0
20.05.2019 03:00:00 14,2 12,5 12 7 19 10 WNW 0,0
20.05.2019 02:00:00 14,3 12,0 12 6 29 16 WNW -
20.05.2019 01:00:00 14,8 11,2 10 5 31 17 WNW 0,0
20.05.2019 00:00:00 15,1 10,9 13 7 35 19 WNW 0,0
19.05.2019 23:00:00 15,9 10,2 16 9 38 20 W 0,0
19.05.2019 22:00:00 17,2 8,9 16 9 35 19 W 0,0
19.05.2019 21:00:00 18,3 6,5 19 10 36 19 W 0,0
19.05.2019 20:00:00 19,6 4,5 17 9 36 19 WNW -
19.05.2019 19:00:00 21,0 5,0 19 10 35 19 WNW 0,0
19.05.2019 18:00:00 21,2 5,9 14 7 28 15 W 0,0
19.05.2019 17:00:00 21,3 5,9 14 7 29 15 WNW 0,0
19.05.2019 16:00:00 20,1 6,1 16 9 29 15 W 0,0
19.05.2019 15:00:00 19,5 6,2 13 7 29 16 NW 0,0
19.05.2019 14:00:00 18,3 5,8 14 7 28 15 WNW -
19.05.2019 13:00:00 17,3 6,5 12 6 26 14 WNW 0,0
19.05.2019 12:00:00 15,8 5,9 11 6 21 11 W 0,0
19.05.2019 11:00:00 14,6 5,9 9 5 19 10 W 0,0
19.05.2019 10:00:00 13,3 5,9 9 5 17 9 W 0,0
19.05.2019 09:00:00 11,8 5,5 9 5 14 7 WNW 0,0
19.05.2019 08:00:00 10,6 4,1 6 3 12 6 NNW -
19.05.2019 07:00:00 10,8 3,8 7 4 16 9 NW 0,0
19.05.2019 06:00:00 11,3 3,8 8 4 13 7 NW 0,0
19.05.2019 05:00:00 11,1 3,2 7 4 12 7 NW 0,0
19.05.2019 04:00:00 11,7 2,1 5 3 12 7 NNW 0,0
19.05.2019 03:00:00 12,7 1,7 6 3 10 6 NW 0,0
19.05.2019 02:00:00 13,1 1,1 4 2 10 5 NW -
19.05.2019 01:00:00 13,9 0,9 3 2 8 5 W 0,0
19.05.2019 00:00:00 14,6 0,9 0 0 7 4 W 0,0
18.05.2019 23:00:00 15,0 0,9 2 1 10 5 NW 0,0
18.05.2019 22:00:00 15,8 1,1 4 2 18 10 WNW 0,0
18.05.2019 21:00:00 17,0 1,1 10 5 34 18 NW 0,0
18.05.2019 20:00:00 18,9 1,5 16 9 35 19 NW -
18.05.2019 19:00:00 19,8 1,7 20 11 40 22 WNW 0,0
18.05.2019 18:00:00 19,4 1,3 21 11 43 23 WNW 0,0
18.05.2019 17:00:00 19,4 1,9 20 11 40 22 WNW 0,0
18.05.2019 16:00:00 19,1 2,9 18 10 40 22 WNW 0,0
18.05.2019 15:00:00 18,1 4,3 20 11 36 19 WNW 0,0
18.05.2019 14:00:00 17,1 4,8 17 9 34 18 WNW -
18.05.2019 13:00:00 15,8 5,5 13 7 31 17 NW 0,0
18.05.2019 12:00:00 14,7 6,2 13 7 27 15 W 0,0
18.05.2019 11:00:00 13,7 6,5 15 8 24 13 WNW 0,0
18.05.2019 10:00:00 12,2 6,1 13 7 24 13 WNW 0,0
18.05.2019 09:00:00 10,8 5,3 11 6 18 10 WNW 0,0
18.05.2019 08:00:00 9,9 4,8 9 5 16 9 NNW -
18.05.2019 07:00:00 10,0 5,5 5 3 13 7 NNW 0,0
18.05.2019 06:00:00 11,2 5,1 3 1 8 4 NW 0,0
18.05.2019 05:00:00 11,4 5,0 4 2 9 5 WNW 0,0
18.05.2019 04:00:00 12,1 5,0 2 1 10 5 NW 0,0
18.05.2019 03:00:00 12,5 5,5 5 3 13 7 WNW 0,0
18.05.2019 02:00:00 13,1 5,9 7 4 26 14 WNW -
18.05.2019 01:00:00 13,9 2,7 8 5 26 14 W 0,0
18.05.2019 00:00:00 14,1 1,1 1 1 8 4 NNW 0,0
17.05.2019 23:00:00 14,7 1,3 4 2 13 7 NW 0,0
17.05.2019 22:00:00 15,0 1,5 4 2 21 12 NW 0,0
17.05.2019 21:00:00 17,5 1,9 13 7 29 16 WNW 0,0
17.05.2019 20:00:00 18,8 3,0 17 9 31 17 WNW -
17.05.2019 19:00:00 20,1 4,1 16 9 32 17 WNW 0,0
17.05.2019 18:00:00 19,5 3,9 15 8 32 17 NW 0,0
17.05.2019 17:00:00 19,0 3,6 16 9 35 19 WNW 0,0
17.05.2019 16:00:00 18,0 4,1 16 9 33 18 WNW 0,0
17.05.2019 15:00:00 17,6 4,1 16 8 31 17 WNW 0,0
17.05.2019 14:00:00 16,3 4,6 18 10 33 18 WNW -

tt = temperature
td = dewpoint
ff = wind speed
fx = gusts
dd = wind direction
rr = precipitation

Next stations